createdAt,value
2024-02-11T00:02:20.865Z,85019.91
2024-02-11T00:04:48.647Z,85018.38
2024-02-11T00:07:16.174Z,85020.47
2024-02-11T00:09:43.850Z,85023.19
2024-02-11T00:12:11.768Z,85016.97
2024-02-11T00:14:39.662Z,85022.25
2024-02-11T00:17:08.150Z,85028.25
2024-02-11T00:19:37.292Z,85036.81
2024-02-11T00:22:04.976Z,85030.94
2024-02-11T00:24:32.578Z,85031.66
2024-02-11T00:27:00.210Z,85029.81
2024-02-11T00:29:28.287Z,85029.34
2024-02-11T00:31:57.905Z,85034.56
2024-02-11T00:34:26.007Z,85028.28
2024-02-11T00:36:53.857Z,85024.94
2024-02-11T00:39:22.203Z,85023.03
2024-02-11T00:41:50.214Z,85010.06
2024-02-11T00:44:18.566Z,85014.22
2024-02-11T00:46:48.160Z,85001.66
2024-02-11T00:49:16.796Z,85013.22
2024-02-11T00:51:44.431Z,85011.09
2024-02-11T00:54:11.932Z,85002.19
2024-02-11T00:56:44.366Z,85011.47
2024-02-11T00:59:12.387Z,85007.38
2024-02-11T01:01:42.447Z,84995.88
2024-02-11T01:04:10.779Z,84981.16
2024-02-11T01:06:39.083Z,84982.53
2024-02-11T01:09:07.698Z,84974.41
2024-02-11T01:11:35.317Z,84993.84
2024-02-11T01:14:03.365Z,85003.03
2024-02-11T01:16:31.288Z,85007.53
2024-02-11T01:18:59.919Z,85013.47
2024-02-11T01:21:27.689Z,85019.00
2024-02-11T01:23:55.624Z,85007.28
2024-02-11T01:26:23.223Z,85018.03
2024-02-11T01:28:51.248Z,84999.25
2024-02-11T01:31:19.046Z,84999.66
2024-02-11T01:33:46.665Z,85021.44
2024-02-11T01:36:14.187Z,85019.28
2024-02-11T01:38:41.696Z,85027.91
2024-02-11T01:41:09.686Z,85030.16
2024-02-11T01:43:37.202Z,85036.81
2024-02-11T01:46:06.453Z,85043.09
2024-02-11T01:48:34.774Z,85039.16
2024-02-11T01:51:02.575Z,85052.13
2024-02-11T01:53:30.768Z,85056.22
2024-02-11T01:55:58.671Z,85058.84
2024-02-11T01:58:26.288Z,85067.75
2024-02-11T02:00:57.242Z,85032.72
2024-02-11T02:03:26.420Z,85068.84
2024-02-11T02:05:54.416Z,85057.31
2024-02-11T02:08:22.758Z,85058.06
2024-02-11T02:10:50.652Z,85051.00
2024-02-11T02:13:18.409Z,85058.38
2024-02-11T02:15:46.075Z,85050.59
2024-02-11T02:18:14.013Z,85051.63
2024-02-11T02:20:42.011Z,85042.69
2024-02-11T02:23:10.237Z,85050.09
2024-02-11T02:25:38.071Z,85044.19
2024-02-11T02:28:07.037Z,85045.00
2024-02-11T02:30:37.413Z,85031.84
2024-02-11T02:33:05.701Z,85043.53
2024-02-11T02:35:35.101Z,85055.03
2024-02-11T02:38:02.886Z,85045.06
2024-02-11T02:40:32.008Z,85053.25
2024-02-11T02:43:00.602Z,85053.94
2024-02-11T02:45:28.482Z,85039.94
2024-02-11T02:47:56.886Z,85047.34
2024-02-11T02:50:25.004Z,85052.88
2024-02-11T02:52:52.835Z,85052.44
2024-02-11T02:55:21.743Z,85039.59
2024-02-11T02:57:49.750Z,85039.84
2024-02-11T03:00:20.583Z,85052.47
2024-02-11T03:02:50.300Z,85045.81
2024-02-11T03:05:18.638Z,85053.59
2024-02-11T03:07:46.309Z,85052.53
2024-02-11T03:10:17.869Z,85062.91
2024-02-11T03:12:46.078Z,85043.66
2024-02-11T03:15:13.739Z,85048.81
2024-02-11T03:17:43.465Z,85042.06
2024-02-11T03:20:13.072Z,85026.50
2024-02-11T03:22:40.944Z,85052.53
2024-02-11T03:25:10.099Z,85049.84
2024-02-11T03:27:40.593Z,85045.69
2024-02-11T03:30:09.555Z,85052.28
2024-02-11T03:32:37.673Z,85049.19
2024-02-11T03:35:07.258Z,85049.47
2024-02-11T03:37:36.602Z,85042.56
2024-02-11T03:40:10.343Z,85037.84
2024-02-11T03:42:38.284Z,85048.25
2024-02-11T03:45:10.860Z,85056.44
2024-02-11T03:47:42.124Z,85068.41
2024-02-11T03:50:16.937Z,85030.91
2024-02-11T03:52:45.479Z,85063.72
2024-02-11T03:55:13.560Z,85065.19
2024-02-11T03:57:41.916Z,85071.50
2024-02-11T04:00:16.527Z,85071.53
2024-02-11T04:02:44.327Z,85068.59
2024-02-11T04:05:18.209Z,85070.84
2024-02-11T04:07:48.249Z,85056.78
2024-02-11T04:10:20.797Z,85074.56
2024-02-11T04:12:49.672Z,85049.47
2024-02-11T04:15:17.530Z,85062.03
2024-02-11T04:17:50.523Z,85067.13
2024-02-11T04:20:26.748Z,85060.81
2024-02-11T04:23:02.472Z,85068.88
2024-02-11T04:25:36.731Z,85057.72
2024-02-11T04:28:10.018Z,85063.94
2024-02-11T04:30:40.225Z,85080.78
2024-02-11T04:33:09.224Z,85081.22
2024-02-11T04:35:37.838Z,85082.44
2024-02-11T04:38:14.577Z,85090.66
2024-02-11T04:40:43.660Z,85092.16
2024-02-11T04:43:11.757Z,85094.72
2024-02-11T04:45:40.342Z,85099.91
2024-02-11T04:48:08.399Z,85107.69
2024-02-11T04:50:36.955Z,85112.09
2024-02-11T04:53:08.639Z,85104.66
2024-02-11T04:55:45.758Z,85107.28
2024-02-11T04:58:18.708Z,85113.13
2024-02-11T05:00:52.959Z,85087.25
2024-02-11T05:03:22.213Z,85108.25
2024-02-11T05:05:53.038Z,85115.56
2024-02-11T05:08:25.839Z,85120.75
2024-02-11T05:10:56.464Z,85118.88
2024-02-11T05:13:31.193Z,85108.88
2024-02-11T05:16:04.968Z,85119.44
2024-02-11T05:18:40.297Z,85122.34
2024-02-11T05:21:08.507Z,85122.66
2024-02-11T05:23:36.725Z,85125.91
2024-02-11T05:26:07.332Z,85130.28
2024-02-11T05:28:35.997Z,85129.16
2024-02-11T05:31:04.389Z,85131.72
2024-02-11T05:33:33.306Z,85131.63
2024-02-11T05:36:06.279Z,85138.22
2024-02-11T05:38:41.659Z,85134.34
2024-02-11T05:41:09.738Z,85126.47
2024-02-11T05:43:38.066Z,85131.88
2024-02-11T05:46:08.528Z,85130.75
2024-02-11T05:48:36.552Z,85139.84
2024-02-11T05:51:04.616Z,85137.63
2024-02-11T05:53:32.359Z,85143.22
2024-02-11T05:56:02.415Z,85141.94
2024-02-11T05:58:30.273Z,85139.59
2024-02-11T06:00:58.140Z,85140.50
2024-02-11T06:03:25.863Z,85128.31
2024-02-11T06:05:54.496Z,85127.72
2024-02-11T06:08:23.068Z,85117.81
2024-02-11T06:10:52.276Z,85110.94
2024-02-11T06:13:20.878Z,85118.00
2024-02-11T06:15:49.513Z,85125.19
2024-02-11T06:18:19.689Z,85120.47
2024-02-11T06:20:47.773Z,85118.81
2024-02-11T06:23:15.349Z,85117.94
2024-02-11T06:25:44.584Z,85115.13
2024-02-11T06:28:12.897Z,85123.56
2024-02-11T06:30:40.728Z,85123.75
2024-02-11T06:33:11.961Z,85125.41
2024-02-11T06:35:41.728Z,85123.81
2024-02-11T06:38:09.504Z,85105.09
2024-02-11T06:40:37.795Z,85114.22
2024-02-11T06:43:13.113Z,85114.41
2024-02-11T06:45:47.940Z,85112.72
2024-02-11T06:48:17.306Z,85109.63
2024-02-11T06:50:46.029Z,85122.50
2024-02-11T06:53:14.113Z,85111.34
2024-02-11T06:55:42.551Z,85115.38
2024-02-11T06:58:11.255Z,85109.25
2024-02-11T07:00:40.712Z,85120.28
2024-02-11T07:03:11.935Z,85117.47
2024-02-11T07:05:41.308Z,85126.47
2024-02-11T07:08:10.490Z,85121.91
2024-02-11T07:10:38.636Z,85115.03
2024-02-11T07:13:06.558Z,85115.19
2024-02-11T07:15:35.186Z,85120.78
2024-02-11T07:18:03.093Z,85124.31
2024-02-11T07:20:30.749Z,85120.50
2024-02-11T07:22:58.665Z,85122.69
2024-02-11T07:25:27.150Z,85094.88
2024-02-11T07:27:55.205Z,85116.19
2024-02-11T07:30:22.863Z,85109.66
2024-02-11T07:32:51.118Z,85115.66
2024-02-11T07:35:20.561Z,85114.66
2024-02-11T07:37:48.359Z,85106.66
2024-02-11T07:40:18.085Z,85112.78
2024-02-11T07:42:47.796Z,85122.00
2024-02-11T07:45:17.220Z,85116.88
2024-02-11T07:47:50.337Z,85115.81
2024-02-11T07:50:20.234Z,85086.66
2024-02-11T07:52:49.372Z,85105.63
2024-02-11T07:55:18.573Z,85112.44
2024-02-11T07:57:50.809Z,85119.38
2024-02-11T08:00:22.907Z,85126.44
2024-02-11T08:02:53.092Z,85115.84
2024-02-11T08:05:23.937Z,85109.00
2024-02-11T08:07:54.145Z,85113.31
2024-02-11T08:10:25.553Z,85109.69
2024-02-11T08:12:56.732Z,85095.09
2024-02-11T08:15:25.558Z,85116.72
2024-02-11T08:17:54.081Z,85115.69
2024-02-11T08:20:22.426Z,85112.78
2024-02-11T08:22:50.212Z,85107.88
2024-02-11T08:25:18.993Z,85108.81
2024-02-11T08:27:47.585Z,85111.13
2024-02-11T08:30:15.436Z,85123.06
2024-02-11T08:32:44.914Z,85111.75
2024-02-11T08:35:13.280Z,85111.44
2024-02-11T08:37:42.131Z,85117.50
2024-02-11T08:40:12.645Z,85117.41
2024-02-11T08:42:41.568Z,85098.34
2024-02-11T08:45:09.856Z,85104.97
2024-02-11T08:47:37.609Z,85111.03
2024-02-11T08:50:06.110Z,85109.88
2024-02-11T08:52:37.279Z,85111.53
2024-02-11T08:55:05.580Z,85103.59
2024-02-11T08:57:33.400Z,85101.06
2024-02-11T09:00:01.138Z,85095.84
2024-02-11T09:02:32.108Z,85095.97
2024-02-11T09:05:01.930Z,85101.81
2024-02-11T09:07:32.689Z,85098.66
2024-02-11T09:10:01.182Z,85103.38
2024-02-11T09:12:32.280Z,85098.34
2024-02-11T09:15:00.095Z,85091.56
2024-02-11T09:17:32.372Z,85098.50
2024-02-11T09:20:01.199Z,85086.41
2024-02-11T09:22:32.282Z,85090.19
2024-02-11T09:25:00.162Z,85093.47
2024-02-11T09:27:28.081Z,85092.44
2024-02-11T09:29:55.861Z,85084.19
2024-02-11T09:32:23.894Z,85088.31
2024-02-11T09:34:51.782Z,85090.19
2024-02-11T09:37:19.508Z,85084.66
2024-02-11T09:39:47.425Z,85081.97
2024-02-11T09:42:19.589Z,85089.81
2024-02-11T09:44:52.271Z,85084.09
2024-02-11T09:47:23.318Z,85081.38
2024-02-11T09:49:54.026Z,85085.88
2024-02-11T09:52:24.260Z,85072.66
2024-02-11T09:54:54.529Z,85079.59
2024-02-11T09:57:22.564Z,85080.50
2024-02-11T09:59:50.608Z,85064.63
2024-02-11T10:02:21.823Z,85047.13
2024-02-11T10:04:51.514Z,85057.53
2024-02-11T10:07:25.956Z,85060.22
2024-02-11T10:09:58.513Z,85064.38
2024-02-11T10:12:26.285Z,85066.00
2024-02-11T10:14:58.921Z,85050.72
2024-02-11T10:17:27.358Z,85053.97
2024-02-11T10:19:55.805Z,85048.25
2024-02-11T10:22:28.359Z,85050.28
2024-02-11T10:24:57.848Z,85053.50
2024-02-11T10:27:25.821Z,85051.78
2024-02-11T10:29:54.101Z,85048.41
2024-02-11T10:32:22.277Z,85040.53
2024-02-11T10:34:51.154Z,85033.94
2024-02-11T10:37:19.129Z,85046.38
2024-02-11T10:39:46.730Z,85038.63
2024-02-11T10:42:15.364Z,85033.59
2024-02-11T10:44:45.132Z,85027.03
2024-02-11T10:47:13.917Z,85037.41
2024-02-11T10:49:42.382Z,85030.28
2024-02-11T10:52:14.940Z,85031.31
2024-02-11T10:54:44.164Z,85034.22
2024-02-11T10:57:21.436Z,85038.16
2024-02-11T11:00:10.766Z,85038.75
2024-02-11T11:02:39.494Z,85032.31
2024-02-11T11:05:19.309Z,85048.25
2024-02-11T11:07:52.354Z,85036.13
2024-02-11T11:10:21.712Z,85037.75
2024-02-11T11:12:51.757Z,85034.69
2024-02-11T11:15:33.694Z,85035.25
2024-02-11T11:18:03.410Z,85049.56
2024-02-11T11:20:35.845Z,85047.53
2024-02-11T11:23:05.841Z,85019.25
2024-02-11T11:25:34.533Z,85035.25
2024-02-11T11:28:11.553Z,85038.31
2024-02-11T11:30:39.213Z,85043.88
2024-02-11T11:33:08.504Z,85037.56
2024-02-11T11:35:36.357Z,85030.69
2024-02-11T11:38:04.666Z,85010.94
2024-02-11T11:40:38.639Z,85029.09
2024-02-11T11:43:15.959Z,85034.63
2024-02-11T11:45:59.652Z,85038.16
2024-02-11T11:48:29.456Z,85038.44
2024-02-11T11:51:02.530Z,85038.63
2024-02-11T11:53:31.141Z,85039.31
2024-02-11T11:56:02.292Z,85027.78
2024-02-11T11:58:32.523Z,85038.00
2024-02-11T12:01:09.392Z,85038.00
2024-02-11T12:03:41.348Z,85033.47
2024-02-11T12:06:15.375Z,85033.63
2024-02-11T12:08:43.220Z,85025.13
2024-02-11T12:11:11.199Z,85041.50
2024-02-11T12:13:40.416Z,85035.19
2024-02-11T12:16:15.460Z,85041.91
2024-02-11T12:18:45.238Z,85041.00
2024-02-11T12:21:15.336Z,85036.41
2024-02-11T12:23:43.469Z,85047.63
2024-02-11T12:26:12.538Z,85050.53
2024-02-11T12:28:42.758Z,85040.72
2024-02-11T12:31:15.229Z,85044.72
2024-02-11T12:33:48.072Z,85047.81
2024-02-11T12:36:24.705Z,85032.16
2024-02-11T12:38:53.964Z,85032.44
2024-02-11T12:41:26.247Z,85036.06
2024-02-11T12:43:56.582Z,85034.63
2024-02-11T12:46:25.200Z,85041.44
2024-02-11T12:48:53.145Z,85037.50
2024-02-11T12:51:21.666Z,85042.16
2024-02-11T12:53:50.897Z,85035.25
2024-02-11T12:56:20.553Z,85035.69
2024-02-11T12:58:50.918Z,85022.69
2024-02-11T13:01:20.841Z,85037.75
2024-02-11T13:03:48.898Z,85029.25
2024-02-11T13:06:18.866Z,85010.53
2024-02-11T13:08:48.825Z,85015.78
2024-02-11T13:11:21.645Z,85028.34
2024-02-11T13:13:51.801Z,85037.00
2024-02-11T13:16:22.099Z,85033.34
2024-02-11T13:18:53.295Z,85036.09
2024-02-11T13:21:21.351Z,85035.50
2024-02-11T13:23:50.247Z,85042.78
2024-02-11T13:26:18.530Z,85037.66
2024-02-11T13:28:47.786Z,85032.41
2024-02-11T13:31:24.205Z,85033.44
2024-02-11T13:33:55.298Z,85030.19
2024-02-11T13:36:24.152Z,85026.19
2024-02-11T13:38:52.402Z,85030.72
2024-02-11T13:41:20.649Z,85023.25
2024-02-11T13:43:48.164Z,85025.47
2024-02-11T13:46:15.844Z,85018.00
2024-02-11T13:48:44.488Z,85008.84
2024-02-11T13:51:13.127Z,85035.28
2024-02-11T13:53:41.185Z,85005.25
2024-02-11T13:56:09.267Z,85028.00
2024-02-11T13:58:43.515Z,85030.66
2024-02-11T14:01:12.388Z,85012.97
2024-02-11T14:03:42.876Z,85033.84
2024-02-11T14:06:14.899Z,85034.38
2024-02-11T14:08:44.755Z,85031.03
2024-02-11T14:11:12.888Z,85036.63
2024-02-11T14:13:40.541Z,85042.59
2024-02-11T14:16:10.105Z,85030.13
2024-02-11T14:18:40.141Z,85032.25
2024-02-11T14:21:10.011Z,85040.22
2024-02-11T14:23:40.323Z,85048.28
2024-02-11T14:26:11.370Z,85048.59
2024-02-11T14:28:39.810Z,85048.91
2024-02-11T14:31:07.843Z,85041.56
2024-02-11T14:33:36.197Z,85042.81
2024-02-11T14:36:04.800Z,85046.50
2024-02-11T14:38:33.773Z,85048.06
2024-02-11T14:41:01.650Z,85056.22
2024-02-11T14:43:30.251Z,85054.75
2024-02-11T14:45:58.303Z,85056.53
2024-02-11T14:48:26.754Z,85059.47
2024-02-11T14:50:54.601Z,85053.69
2024-02-11T14:53:22.258Z,85051.59
2024-02-11T14:55:51.224Z,85059.38
2024-02-11T14:58:21.292Z,85066.06
2024-02-11T15:00:49.261Z,85058.19
2024-02-11T15:03:17.041Z,85071.78
2024-02-11T15:05:46.213Z,85066.41
2024-02-11T15:08:14.491Z,85072.97
2024-02-11T15:10:42.463Z,85067.38
2024-02-11T15:13:10.409Z,85081.00
2024-02-11T15:15:39.119Z,85076.94
2024-02-11T15:18:07.244Z,85083.63
2024-02-11T15:20:36.619Z,85079.41
2024-02-11T15:23:04.412Z,85088.63
2024-02-11T15:25:32.828Z,85088.69
2024-02-11T15:28:00.538Z,85084.28
2024-02-11T15:30:28.116Z,85091.78
2024-02-11T15:32:57.451Z,85104.53
2024-02-11T15:35:31.018Z,85079.53
2024-02-11T15:38:00.220Z,85095.28
2024-02-11T15:40:28.085Z,85093.50
2024-02-11T15:42:56.032Z,85081.56
2024-02-11T15:45:23.763Z,85096.56
2024-02-11T15:47:52.281Z,85093.72
2024-02-11T15:50:22.777Z,85105.72
2024-02-11T15:52:52.970Z,85109.13
2024-02-11T15:55:25.855Z,85102.19
2024-02-11T15:57:56.762Z,85111.16
2024-02-11T16:00:27.194Z,85096.88
2024-02-11T16:02:54.975Z,85110.59
2024-02-11T16:05:25.305Z,85111.16
2024-02-11T16:07:53.962Z,85111.00
2024-02-11T16:10:22.441Z,85115.41
2024-02-11T16:12:50.365Z,85114.03
2024-02-11T16:15:19.631Z,85115.00
2024-02-11T16:17:47.437Z,85119.63
2024-02-11T16:20:18.976Z,85110.81
2024-02-11T16:22:47.070Z,85116.91
2024-02-11T16:25:14.903Z,85121.13
2024-02-11T16:27:42.964Z,85109.44
2024-02-11T16:30:11.462Z,85116.53
2024-02-11T16:32:39.914Z,85124.09
2024-02-11T16:35:11.240Z,85123.44
2024-02-11T16:37:39.151Z,85134.72
2024-02-11T16:40:09.543Z,85133.25
2024-02-11T16:42:37.488Z,85135.84
2024-02-11T16:45:06.276Z,85132.56
2024-02-11T16:47:35.266Z,85123.09
2024-02-11T16:50:03.714Z,85142.88
2024-02-11T16:52:32.445Z,85130.19
2024-02-11T16:55:00.007Z,85130.25
2024-02-11T16:57:31.499Z,85132.13
2024-02-11T17:00:02.388Z,85131.25
2024-02-11T17:02:33.313Z,85118.88
2024-02-11T17:05:02.155Z,85131.25
2024-02-11T17:07:31.644Z,85125.34
2024-02-11T17:09:59.001Z,85131.25
2024-02-11T17:12:26.558Z,85131.19
2024-02-11T17:14:54.803Z,85125.81
2024-02-11T17:17:23.009Z,85133.50
2024-02-11T17:19:53.873Z,85125.97
2024-02-11T17:22:23.757Z,85128.91
2024-02-11T17:24:51.460Z,85104.78
2024-02-11T17:27:19.172Z,85130.69
2024-02-11T17:29:46.774Z,85132.50
2024-02-11T17:32:25.455Z,85118.69
2024-02-11T17:34:57.936Z,85139.38
2024-02-11T17:37:26.665Z,85135.19
2024-02-11T17:39:54.459Z,85136.44
2024-02-11T17:42:22.141Z,85136.06
2024-02-11T17:44:50.344Z,85140.53
2024-02-11T17:47:18.741Z,85135.03
2024-02-11T17:49:47.448Z,85132.50
2024-02-11T17:52:17.207Z,85141.38
2024-02-11T17:54:44.964Z,85137.34
2024-02-11T17:57:12.832Z,85131.50
2024-02-11T17:59:41.860Z,85132.69
2024-02-11T18:02:11.677Z,85143.84
2024-02-11T18:04:39.740Z,85139.44
2024-02-11T18:07:07.566Z,85141.28
2024-02-11T18:09:35.256Z,85143.16
2024-02-11T18:12:03.102Z,85129.59
2024-02-11T18:14:31.119Z,85145.06
2024-02-11T18:16:58.810Z,85137.00
2024-02-11T18:19:26.561Z,85119.72
2024-02-11T18:21:55.636Z,85133.00
2024-02-11T18:24:24.758Z,85136.44
2024-02-11T18:26:53.418Z,85136.09
2024-02-11T18:29:21.484Z,85146.91
2024-02-11T18:31:49.127Z,85138.75
2024-02-11T18:34:16.675Z,85146.63
2024-02-11T18:36:44.936Z,85146.34
2024-02-11T18:39:16.078Z,85149.00
2024-02-11T18:41:44.445Z,85143.88
2024-02-11T18:44:12.495Z,85156.97
2024-02-11T18:46:40.376Z,85121.25
2024-02-11T18:49:08.051Z,85145.59
2024-02-11T18:51:37.662Z,85153.41
2024-02-11T18:54:06.584Z,85144.44
2024-02-11T18:56:37.070Z,85157.47
2024-02-11T18:59:09.215Z,85164.19
2024-02-11T19:01:38.346Z,85171.28
2024-02-11T19:04:06.309Z,85172.06
2024-02-11T19:06:35.113Z,85174.72
2024-02-11T19:09:05.698Z,85176.56
2024-02-11T19:11:33.501Z,85186.59
2024-02-11T19:14:02.429Z,85169.97
2024-02-11T19:16:30.685Z,85187.38
2024-02-11T19:19:00.670Z,85174.13
2024-02-11T19:21:28.280Z,85185.28
2024-02-11T19:23:55.837Z,85171.34
2024-02-11T19:26:25.673Z,85184.22
2024-02-11T19:28:54.204Z,85181.63
2024-02-11T19:31:22.086Z,85181.63
2024-02-11T19:34:09.714Z,85185.47
2024-02-11T19:36:38.141Z,85187.97
2024-02-11T19:39:11.026Z,85178.63
2024-02-11T19:41:41.567Z,85186.06
2024-02-11T19:44:11.513Z,85183.09
2024-02-11T19:46:40.814Z,85192.03
2024-02-11T19:49:10.554Z,85196.56
2024-02-11T19:51:39.804Z,85179.59
2024-02-11T19:54:09.339Z,85184.47
2024-02-11T19:56:37.130Z,85194.50
2024-02-11T19:59:07.538Z,85171.75
2024-02-11T20:01:35.513Z,85193.50
2024-02-11T20:04:03.954Z,85182.47
2024-02-11T20:06:33.073Z,85186.16
2024-02-11T20:09:01.919Z,85181.03
2024-02-11T20:11:30.904Z,85194.31
2024-02-11T20:13:58.635Z,85178.94
2024-02-11T20:16:26.345Z,85195.09
2024-02-11T20:18:53.979Z,85196.66
2024-02-11T20:21:21.966Z,85200.53
2024-02-11T20:23:49.667Z,85197.63
2024-02-11T20:26:18.459Z,85208.78
2024-02-11T20:28:47.248Z,85208.81
2024-02-11T20:31:16.189Z,85211.09
2024-02-11T20:33:48.207Z,85211.88
2024-02-11T20:36:16.623Z,85220.03
2024-02-11T20:38:45.912Z,85218.59
2024-02-11T20:41:18.632Z,85239.38
2024-02-11T20:43:47.142Z,85221.94
2024-02-11T20:46:15.131Z,85228.28
2024-02-11T20:48:43.112Z,85214.69
2024-02-11T20:51:11.419Z,85242.41
2024-02-11T20:53:39.277Z,85234.59
2024-02-11T20:56:07.886Z,85229.03
2024-02-11T20:58:35.930Z,85230.13
2024-02-11T21:01:04.819Z,85222.38
2024-02-11T21:03:32.938Z,85214.28
2024-02-11T21:06:02.140Z,85173.06
2024-02-11T21:08:30.884Z,85206.88
2024-02-11T21:10:59.017Z,85210.56
2024-02-11T21:13:47.869Z,85217.22
2024-02-11T21:16:15.700Z,85217.94
2024-02-11T21:18:51.741Z,85221.63
2024-02-11T21:21:19.853Z,85215.34
2024-02-11T21:23:47.425Z,85227.59
2024-02-11T21:26:17.431Z,85222.06
2024-02-11T21:28:49.384Z,85219.53
2024-02-11T21:31:22.277Z,85234.06
2024-02-11T21:33:52.185Z,85219.97
2024-02-11T21:36:20.354Z,85218.94
2024-02-11T21:38:48.577Z,85221.88
2024-02-11T21:41:19.720Z,85231.91
2024-02-11T21:43:48.259Z,85233.38
2024-02-11T21:46:17.448Z,85223.44
2024-02-11T21:48:46.041Z,85227.91
2024-02-11T21:51:14.017Z,85228.66
2024-02-11T21:53:44.121Z,85225.66
2024-02-11T21:56:11.856Z,85228.63
2024-02-11T21:58:39.440Z,85223.13
2024-02-11T22:01:08.785Z,85230.53
2024-02-11T22:03:38.469Z,85237.25
2024-02-11T22:06:08.586Z,85222.09
2024-02-11T22:08:36.753Z,85230.59
2024-02-11T22:11:04.806Z,85232.44
2024-02-11T22:13:33.262Z,85226.16
2024-02-11T22:16:02.017Z,85230.97
2024-02-11T22:18:30.113Z,85235.06
2024-02-11T22:20:57.983Z,85233.91
2024-02-11T22:23:25.920Z,85237.66
2024-02-11T22:25:53.887Z,85230.22
2024-02-11T22:28:21.713Z,85229.84
2024-02-11T22:30:49.441Z,85226.53
2024-02-11T22:33:17.473Z,85231.78
2024-02-11T22:35:45.764Z,85228.84
2024-02-11T22:38:13.874Z,85223.66
2024-02-11T22:40:42.120Z,85198.59
2024-02-11T22:43:10.856Z,85206.25
2024-02-11T22:45:39.444Z,85211.81
2024-02-11T22:48:07.518Z,85207.38
2024-02-11T22:50:37.049Z,85214.78
2024-02-11T22:53:04.995Z,85214.03
2024-02-11T22:55:32.725Z,85154.97
2024-02-11T22:58:02.006Z,85212.44
2024-02-11T23:00:37.797Z,85213.88
2024-02-11T23:03:06.430Z,85217.16
2024-02-11T23:05:37.992Z,85209.03
2024-02-11T23:08:09.699Z,85223.00
2024-02-11T23:10:38.155Z,85224.09
2024-02-11T23:13:07.512Z,85226.66
2024-02-11T23:15:35.940Z,85221.03
2024-02-11T23:18:23.620Z,85206.94
2024-02-11T23:20:52.066Z,85203.91
2024-02-11T23:23:19.706Z,85209.38
2024-02-11T23:25:47.962Z,85213.78
2024-02-11T23:28:20.701Z,85211.56
2024-02-11T23:30:50.141Z,85201.84
2024-02-11T23:33:18.484Z,85199.59
2024-02-11T23:35:46.761Z,85190.06
2024-02-11T23:38:14.387Z,85204.41
2024-02-11T23:40:47.071Z,85194.09
2024-02-11T23:43:14.861Z,85218.59
2024-02-11T23:45:44.588Z,85205.31
2024-02-11T23:48:14.036Z,85203.84
2024-02-11T23:50:43.322Z,85202.34
2024-02-11T23:53:17.514Z,85196.53
2024-02-11T23:55:45.677Z,85178.28
2024-02-11T23:58:13.649Z,85155.31
